Time;durP1;ratioP1;P1;durP2;ratioP2;P2;SDS_P1;SDS_P2;PMS_P1;PMS_P2;Temp;Humidity;BMP_temperature;BMP_pressure;BME280_temperature;BME280_humidity;BME280_pressure;Samples;Min_cycle;Max_cycle;Signal;HPM_P1;HPM_P2
2021/06/02 00:00:03;;;;;;;0.70;0.70;;;;;;;14.60;50.23;98764.88;5133424;27;41310;-83
2021/06/02 00:02:33;;;;;;;1.13;0.70;;;;;;;14.64;50.51;98778.81;5151332;27;39701;-79
2021/06/02 00:05:02;;;;;;;0.80;0.80;;;;;;;14.63;50.57;98782.47;5132032;27;42489;-78
2021/06/02 00:07:32;;;;;;;0.23;0.23;;;;;;;14.48;50.99;98751.69;5117201;27;41815;-84
2021/06/02 00:10:00;;;;;;;0.20;0.20;;;;;;;14.46;51.35;98757.19;5124572;27;41540;-79
2021/06/02 00:12:28;;;;;;;0.23;0.23;;;;;;;14.44;51.58;98759.13;5151691;27;39049;-83
2021/06/02 00:14:55;;;;;;;0.10;0.10;;;;;;;14.51;51.55;98781.63;5150935;27;40876;-78
2021/06/02 00:17:22;;;;;;;0.50;0.50;;;;;;;14.47;51.37;98774.84;5134024;27;42382;-83
2021/06/02 00:19:50;;;;;;;0.40;0.40;;;;;;;14.28;51.67;98746.13;5116697;27;41257;-82
2021/06/02 00:22:17;;;;;;;0.17;0.17;;;;;;;14.38;51.61;98780.88;5116671;27;39873;-82
2021/06/02 00:24:44;;;;;;;0.53;0.53;;;;;;;14.28;51.88;98766.59;5136588;27;41486;-81
2021/06/02 00:27:13;;;;;;;0.30;0.30;;;;;;;14.27;52.07;98781.72;5150673;27;41770;-82
2021/06/02 00:29:44;;;;;;;0.20;0.20;;;;;;;14.23;52.13;98782.06;5133768;27;42256;-82
2021/06/02 00:32:14;;;;;;;0.30;0.30;;;;;;;14.08;52.16;98760.19;5151325;27;40032;-79
2021/06/02 00:34:42;;;;;;;0.27;0.27;;;;;;;13.97;51.70;98758.31;5136016;27;41627;-81
2021/06/02 00:37:10;;;;;;;0.20;0.20;;;;;;;14.09;52.10;98777.00;5115226;27;41766;-84
2021/06/02 00:39:37;;;;;;;0.10;0.10;;;;;;;14.00;52.30;98763.41;5132343;27;42905;-81
2021/06/02 00:42:05;;;;;;;0.20;0.20;;;;;;;13.88;52.72;98759.03;5151002;27;40214;-77
2021/06/02 00:44:34;;;;;;;0.20;0.20;;;;;;;13.92;53.01;98776.50;5148912;27;41538;-84
2021/06/02 00:47:01;;;;;;;0.20;0.20;;;;;;;13.87;52.95;98775.97;5133200;27;41805;-86
2021/06/02 00:49:28;;;;;;;0.20;0.20;;;;;;;13.80;53.00;98769.44;5123656;27;41964;-80
2021/06/02 00:51:56;;;;;;;0.30;0.30;;;;;;;13.71;52.94;98764.84;5133048;27;39725;-81
2021/06/02 00:54:25;;;;;;;0.60;0.60;;;;;;;13.68;53.26;98767.72;5132070;27;42195;-84
2021/06/02 00:56:54;;;;;;;0.13;0.13;;;;;;;13.60;53.52;98767.44;5133080;27;42007;-82
2021/06/02 00:59:29;;;;;;;0.20;0.20;;;;;;;13.56;53.79;98776.66;5132948;27;42182;-82
2021/06/02 01:01:59;;;;;;;0.10;0.10;;;;;;;13.51;53.65;98781.47;5128284;27;40068;-82
2021/06/02 01:04:28;;;;;;;0.30;0.30;;;;;;;13.46;53.38;98783.63;5153534;27;41352;-81
2021/06/02 01:06:56;;;;;;;0.20;0.20;;;;;;;13.42;53.40;98787.47;5146924;27;41865;-82
2021/06/02 01:09:24;;;;;;;0.20;0.20;;;;;;;13.28;53.42;98765.41;5115564;27;41252;-83
2021/06/02 01:11:53;;;;;;;0.43;0.43;;;;;;;13.35;54.29;98784.44;5115394;27;39890;-81
2021/06/02 01:14:22;;;;;;;0.10;0.10;;;;;;;13.32;54.78;98786.47;5150120;27;40969;-86
2021/06/02 01:16:50;;;;;;;0.20;0.20;;;;;;;13.23;55.26;98775.53;5133196;27;41500;-84
2021/06/02 01:19:21;;;;;;;0.30;0.30;;;;;;;13.27;55.22;98781.50;5149389;27;42011;-85
2021/06/02 01:21:54;;;;;;;0.40;0.40;;;;;;;13.25;55.06;98786.06;5150977;27;40663;-82
2021/06/02 01:24:26;;;;;;;0.50;0.50;;;;;;;13.21;55.17;98790.78;5150446;27;42505;-86
2021/06/02 01:26:55;;;;;;;0.23;0.23;;;;;;;13.16;55.24;98792.94;5115684;27;41856;-81
2021/06/02 01:29:24;;;;;;;0.50;0.50;;;;;;;13.05;54.97;98776.03;5114326;27;41383;-79
2021/06/02 01:32:12;;;;;;;0.53;0.53;;;;;;;13.09;55.37;98793.47;5132136;27;39909;-85
2021/06/02 01:35:27;;;;;;;0.10;0.10;;;;;;;13.04;55.08;98798.25;5124890;27;42264;-84
2021/06/02 01:38:33;;;;;;;0.10;0.10;;;;;;;12.96;55.14;98801.50;5132498;27;42465;-84
2021/06/02 01:41:27;;;;;;;0.20;0.20;;;;;;;12.89;55.32;98800.22;5149364;27;42815;-80
2021/06/02 01:44:31;;;;;;;0.20;0.20;;;;;;;12.86;55.61;98803.09;5128463;27;40347;-82
2021/06/02 01:47:14;;;;;;;0.50;0.50;;;;;;;12.74;55.91;98791.56;5098878;27;41791;-79
2021/06/02 01:50:03;;;;;;;2.77;1.77;;;;;;;12.82;57.48;98789.22;5114708;27;42765;-83
2021/06/02 01:53:14;;;;;;;0.33;0.33;;;;;;;12.82;57.94;98802.50;5127767;27;41958;-81
2021/06/02 01:56:26;;;;;;;0.20;0.20;;;;;;;12.81;57.64;98807.91;5112741;27;40050;-80
2021/06/02 01:59:41;;;;;;;0.17;0.17;;;;;;;12.75;57.25;98803.03;5120617;27;41728;-83
2021/06/02 02:02:24;;;;;;;0.67;0.67;;;;;;;12.71;57.09;98797.13;5036388;28;42459;-81
2021/06/02 02:05:09;;;;;;;0.50;0.50;;;;;;;12.71;57.22;98802.44;5112984;27;42833;-79
2021/06/02 02:07:52;;;;;;;0.30;0.30;;;;;;;12.70;56.98;98810.50;5098634;27;39069;-83
2021/06/02 02:10:44;;;;;;;0.10;0.10;;;;;;;12.67;57.45;98816.03;5097320;27;41698;-81
2021/06/02 02:13:33;;;;;;;0.10;0.10;;;;;;;12.63;57.11;98809.22;5133520;27;42007;-81
2021/06/02 02:16:18;;;;;;;0.70;0.70;;;;;;;12.56;57.34;98804.38;5134738;27;43080;-82
2021/06/02 02:18:57;;;;;;;0.20;0.13;;;;;;;12.55;57.29;98810.63;5136317;27;38853;-83
2021/06/02 02:21:40;;;;;;;0.27;0.27;;;;;;;12.52;57.10;98810.84;5129838;27;40725;-81
2021/06/02 02:24:24;;;;;;;0.20;0.20;;;;;;;12.46;57.39;98808.66;5152063;27;42631;-79
2021/06/02 02:26:57;;;;;;;0.23;0.23;;;;;;;12.41;57.75;98818.72;5153145;27;43131;-84
2021/06/02 02:29:40;;;;;;;0.30;0.30;;;;;;;12.36;57.67;98823.53;5118312;27;38859;-77
2021/06/02 02:32:22;;;;;;;0.10;0.10;;;;;;;12.29;58.01;98824.91;5136003;27;40792;-82
2021/06/02 02:35:14;;;;;;;0.30;0.30;;;;;;;12.22;57.87;98827.16;5118419;27;41909;-80
2021/06/02 02:37:48;;;;;;;0.30;0.30;;;;;;;12.15;57.81;98830.31;5132540;27;42342;-84
2021/06/02 02:40:23;;;;;;;0.40;0.40;;;;;;;12.09;58.00;98825.47;5097847;27;38916;-80
2021/06/02 02:43:00;;;;;;;0.30;0.30;;;;;;;12.04;57.75;98828.41;5122581;27;41729;-85
2021/06/02 02:45:30;;;;;;;0.20;0.20;;;;;;;11.94;57.66;98822.03;5118201;27;43101;-84
2021/06/02 02:48:11;;;;;;;0.60;0.60;;;;;;;11.92;57.62;98823.94;5133812;27;42096;-87
2021/06/02 02:50:50;;;;;;;0.20;0.20;;;;;;;11.88;57.99;98830.41;5134882;27;39074;-84
2021/06/02 02:53:22;;;;;;;0.67;0.40;;;;;;;11.82;58.34;98834.34;5134581;27;41531;-83
2021/06/02 02:55:59;;;;;;;0.10;0.10;;;;;;;11.77;58.26;98833.78;5151198;27;43075;-83
2021/06/02 02:58:33;;;;;;;0.50;0.50;;;;;;;11.66;58.29;98823.03;5142990;27;43003;-80
2021/06/02 03:01:04;;;;;;;0.60;0.60;;;;;;;11.63;58.43;98817.94;5133366;27;40559;-81
2021/06/02 03:03:34;;;;;;;0.50;0.50;;;;;;;11.66;58.49;98838.94;5134846;27;40615;-80
2021/06/02 03:06:22;;;;;;;0.13;0.13;;;;;;;11.61;58.44;98834.91;5117138;27;42778;-87
2021/06/02 03:08:57;;;;;;;0.27;0.27;;;;;;;11.59;58.44;98836.81;5150551;27;42349;-82
2021/06/02 03:11:32;;;;;;;0.30;0.30;;;;;;;11.58;58.42;98835.97;5151334;27;39575;-86
2021/06/02 03:14:05;;;;;;;0.10;0.10;;;;;;;11.49;58.59;98828.63;5141523;27;41584;-84
2021/06/02 03:16:39;;;;;;;0.10;0.10;;;;;;;11.56;58.47;98848.47;5118461;27;43619;-80
2021/06/02 03:19:09;;;;;;;0.20;0.20;;;;;;;11.52;58.46;98836.34;5133701;27;42218;-78
2021/06/02 03:22:02;;;;;;;0.33;0.33;;;;;;;11.53;58.70;98844.22;5152669;27;40341;-84
2021/06/02 03:24:57;;;;;;;0.10;0.10;;;;;;;11.51;59.51;98846.13;5134516;27;41117;-81
2021/06/02 03:27:31;;;;;;;0.87;0.87;;;;;;;11.50;59.41;98851.53;5134446;27;41808;-78
2021/06/02 03:30:09;;;;;;;0.17;0.17;;;;;;;11.43;59.40;98840.47;5136746;27;43033;-84
2021/06/02 03:32:51;;;;;;;0.57;0.40;;;;;;;11.49;59.36;98857.81;5118053;27;39065;-87
2021/06/02 03:35:24;;;;;;;0.20;0.20;;;;;;;11.47;59.33;98851.75;5133779;27;40652;-83
2021/06/02 03:38:02;;;;;;;0.43;0.37;;;;;;;11.48;59.25;98851.66;5151936;27;43176;-83
2021/06/02 03:40:38;;;;;;;0.30;0.30;;;;;;;11.47;59.43;98855.25;5150552;27;42171;-80
2021/06/02 03:43:11;;;;;;;0.20;0.20;;;;;;;11.47;59.54;98863.22;5133681;27;39338;-82
2021/06/02 03:45:51;;;;;;;0.10;0.10;;;;;;;11.47;59.97;98865.00;5134070;27;40314;-83
2021/06/02 03:48:28;;;;;;;0.10;0.10;;;;;;;11.44;60.02;98859.91;5116348;27;41544;-78
2021/06/02 03:51:06;;;;;;;0.20;0.20;;;;;;;11.45;59.68;98861.59;5117273;27;41495;-84
2021/06/02 03:53:51;;;;;;;0.20;0.20;;;;;;;11.44;59.73;98866.06;5143061;27;38918;-83
2021/06/02 03:56:32;;;;;;;0.20;0.20;;;;;;;11.34;60.45;98858.81;5150417;27;42443;-84
2021/06/02 03:59:12;;;;;;;0.53;0.53;;;;;;;11.41;60.12;98866.25;5151422;27;43204;-81
2021/06/02 04:01:48;;;;;;;0.40;0.40;;;;;;;11.42;59.91;98875.91;5133552;27;41350;-83
2021/06/02 04:04:27;;;;;;;0.20;0.20;;;;;;;11.29;59.82;98856.44;5138716;27;39988;-80
2021/06/02 04:07:03;;;;;;;0.30;0.30;;;;;;;11.43;59.66;98882.06;5115967;27;41767;-84
2021/06/02 04:09:41;;;;;;;0.40;0.30;;;;;;;11.47;59.94;98892.38;5134279;27;41692;-82
2021/06/02 04:12:19;;;;;;;0.10;0.10;;;;;;;11.47;59.95;98881.78;5115595;27;41238;-86
2021/06/02 04:14:55;;;;;;;0.13;0.13;;;;;;;11.52;60.07;98878.78;5133906;27;39088;-83
2021/06/02 04:17:25;;;;;;;0.20;0.20;;;;;;;11.56;60.26;98875.00;5149470;27;41685;-78
2021/06/02 04:19:53;;;;;;;0.57;0.57;;;;;;;11.58;60.22;98878.41;5161076;27;43177;-77
2021/06/02 04:22:22;;;;;;;0.20;0.20;;;;;;;11.58;59.89;98878.41;5152666;27;43008;-78
2021/06/02 04:24:51;;;;;;;0.30;0.30;;;;;;;11.65;60.02;98885.00;5152484;27;38989;-78
2021/06/02 04:27:19;;;;;;;0.13;0.13;;;;;;;11.58;59.72;98861.63;5167716;27;42302;-78
2021/06/02 04:29:49;;;;;;;0.27;0.27;;;;;;;11.72;60.01;98883.66;5134981;27;41689;-76
2021/06/02 04:32:16;;;;;;;0.20;0.20;;;;;;;11.77;60.62;98884.22;5158248;27;42182;-85
2021/06/02 04:34:44;;;;;;;0.40;0.40;;;;;;;11.82;61.70;98868.00;5143527;27;38672;-83
2021/06/02 04:37:13;;;;;;;0.13;0.13;;;;;;;11.84;61.83;98874.91;5155214;27;40621;-80
2021/06/02 04:39:42;;;;;;;0.30;0.30;;;;;;;11.87;61.52;98873.81;5138507;27;41771;-81
2021/06/02 04:42:11;;;;;;;0.57;0.57;;;;;;;11.86;61.05;98878.31;5134790;27;41255;-82
2021/06/02 04:44:39;;;;;;;0.10;0.10;;;;;;;11.97;60.79;98884.69;5119136;27;38962;-83
2021/06/02 04:47:07;;;;;;;0.23;0.23;;;;;;;12.03;60.75;98884.25;5133003;27;40692;-80
2021/06/02 04:49:43;;;;;;;0.97;0.97;;;;;;;12.09;60.54;98886.50;5115526;27;41455;-84
2021/06/02 04:52:53;;;;;;;0.30;0.30;;;;;;;12.15;61.08;98878.09;5151031;27;41928;-80
2021/06/02 04:55:44;;;;;;;0.67;0.67;;;;;;;12.16;61.20;98885.13;5116144;27;38826;-84
2021/06/02 04:58:54;;;;;;;0.10;0.10;;;;;;;12.21;60.72;98893.63;5129504;27;41807;-83
2021/06/02 05:02:02;;;;;;;0.70;0.70;;;;;;;12.29;60.52;98893.94;5068855;27;41723;-82
2021/06/02 05:05:10;;;;;;;0.43;0.43;;;;;;;12.37;60.55;98893.41;5111091;27;42168;-81
2021/06/02 05:08:38;;;;;;;0.20;0.20;;;;;;;12.37;60.81;98883.63;5075779;27;38980;-80
2021/06/02 05:11:43;;;;;;;0.10;0.10;;;;;;;12.50;60.68;98900.41;5114141;27;40816;-80
2021/06/02 05:14:55;;;;;;;0.20;0.20;;;;;;;12.63;60.40;98900.41;5148985;27;47074;-84
2021/06/02 05:17:49;;;;;;;0.40;0.40;;;;;;;12.78;59.96;98903.81;5115699;27;40684;-81
2021/06/02 05:22:04;;;;;;;0.10;0.10;;;;;;;12.97;59.90;98904.22;5132894;27;40099;-81
2021/06/02 05:24:17;;;;;;;0.30;0.30;;;;;;;13.21;59.51;98902.47;5135763;27;42231;-80
2021/06/02 05:27:35;;;;;;;0.20;0.20;;;;;;;13.47;59.26;98913.88;5137104;27;42810;-83
2021/06/02 05:30:31;;;;;;;0.20;0.20;;;;;;;13.64;59.60;98910.81;5119731;27;42266;-80
2021/06/02 05:33:41;;;;;;;0.40;0.40;;;;;;;13.81;59.48;98909.56;5119596;27;38941;-80
2021/06/02 05:36:39;;;;;;;0.23;0.23;;;;;;;14.01;59.36;98913.38;5134995;27;41949;-81
2021/06/02 05:39:12;;;;;;;0.20;0.20;;;;;;;14.17;58.97;98923.72;5152725;27;42665;-80
2021/06/02 05:41:56;;;;;;;0.90;0.90;;;;;;;14.37;58.71;98925.69;5135275;27;42767;-81
2021/06/02 05:45:00;;;;;;;0.30;0.30;;;;;;;14.54;58.73;98917.28;5136379;27;38549;-80
2021/06/02 05:47:53;;;;;;;0.20;0.20;;;;;;;14.73;58.95;98922.03;5119128;27;41437;-82
2021/06/02 05:50:53;;;;;;;0.30;0.30;;;;;;;14.84;59.05;98911.38;5116185;27;42113;-82
2021/06/02 05:54:04;;;;;;;0.20;0.20;;;;;;;15.14;58.61;98921.41;5149161;27;42968;-82
2021/06/02 05:57:18;;;;;;;0.20;0.20;;;;;;;15.42;58.00;98930.72;5134821;27;39542;-82
2021/06/02 06:00:22;;;;;;;2.90;1.10;;;;;;;15.65;57.93;98932.41;5152486;27;41666;-85
2021/06/02 06:03:38;;;;;;;0.60;0.60;;;;;;;15.82;57.48;98934.50;5135481;27;42460;-81
2021/06/02 06:06:22;;;;;;;0.20;0.20;;;;;;;15.93;57.04;98920.28;5123348;27;42126;-83
2021/06/02 06:09:28;;;;;;;1.53;0.70;;;;;;;16.17;56.95;98936.94;5135395;27;38796;-79
2021/06/02 06:12:31;;;;;;;0.70;0.70;;;;;;;16.34;56.91;98943.50;5134556;27;40818;-81
2021/06/02 06:15:26;;;;;;;0.60;0.60;;;;;;;16.51;56.01;98947.44;5131382;27;43438;-80
2021/06/02 06:18:10;;;;;;;0.70;0.70;;;;;;;16.84;55.19;98944.56;5118353;27;42873;-81
2021/06/02 06:20:58;;;;;;;0.80;0.80;;;;;;;17.31;54.10;98944.88;5134062;27;39824;-78
2021/06/02 06:23:54;;;;;;;0.83;0.83;;;;;;;17.64;53.54;98946.44;5115825;27;41125;-82
2021/06/02 06:26:29;;;;;;;0.33;0.33;;;;;;;17.79;53.87;98947.72;5134579;27;42085;-87
2021/06/02 06:29:05;;;;;;;0.63;0.63;;;;;;;17.83;52.89;98938.41;5153284;27;43173;-80
2021/06/02 06:31:37;;;;;;;1.00;1.00;;;;;;;18.02;52.93;98952.81;5134893;27;40095;-84
2021/06/02 06:34:08;;;;;;;9.43;1.80;;;;;;;18.08;52.38;98946.88;5134855;27;40747;-83
2021/06/02 06:36:38;;;;;;;0.50;0.50;;;;;;;18.23;52.20;98953.50;5135032;27;41925;-81
2021/06/02 06:39:25;;;;;;;0.20;0.20;;;;;;;18.44;52.24;98942.63;5117107;27;41035;-84
2021/06/02 06:41:54;;;;;;;0.20;0.20;;;;;;;18.70;50.83;98954.47;5133728;27;40217;-79
2021/06/02 06:44:23;;;;;;;0.30;0.30;;;;;;;18.87;50.42;98960.94;5132726;27;41746;-79
2021/06/02 06:46:53;;;;;;;0.60;0.60;;;;;;;18.99;49.66;98960.59;5116723;27;43108;-79
2021/06/02 06:49:23;;;;;;;0.43;0.43;;;;;;;19.18;50.28;98953.47;5149763;27;42218;-80
2021/06/02 06:51:52;;;;;;;0.20;0.20;;;;;;;19.28;50.31;98938.19;5117250;27;41109;-80
2021/06/02 06:54:21;;;;;;;0.63;0.63;;;;;;;19.53;49.48;98953.63;5150265;27;42522;-83
2021/06/02 06:56:50;;;;;;;1.43;1.33;;;;;;;19.77;49.79;98960.28;5129232;27;42990;-81
2021/06/02 06:59:20;;;;;;;0.47;0.47;;;;;;;20.03;48.31;98961.19;5148084;27;42533;-85
2021/06/02 07:01:48;;;;;;;0.20;0.20;;;;;;;20.30;47.19;98958.41;5113239;27;38940;-82
2021/06/02 07:04:15;;;;;;;0.40;0.40;;;;;;;20.86;46.16;98980.59;5128977;27;41570;-86
2021/06/02 07:06:44;;;;;;;0.30;0.30;;;;;;;21.09;45.79;98963.75;5114029;27;41701;-85
2021/06/02 07:09:11;;;;;;;0.67;0.67;;;;;;;21.30;46.03;98957.13;5130726;27;41166;-85
2021/06/02 07:11:40;;;;;;;0.77;0.70;;;;;;;21.56;45.86;98979.47;5130259;27;38740;-81
2021/06/02 07:14:10;;;;;;;0.70;0.70;;;;;;;21.72;46.05;98974.16;5129656;27;41839;-79
2021/06/02 07:16:40;;;;;;;0.53;0.53;;;;;;;21.79;46.23;98964.41;5147800;27;43545;-82
2021/06/02 07:19:11;;;;;;;0.40;0.40;;;;;;;22.01;45.84;98973.75;5147096;27;41989;-83
2021/06/02 07:21:41;;;;;;;0.30;0.30;;;;;;;22.33;44.86;98975.66;5148122;27;39751;-86
2021/06/02 07:24:10;;;;;;;0.60;0.60;;;;;;;22.77;43.59;98988.84;5130164;27;43558;-85
2021/06/02 07:26:40;;;;;;;1.70;1.60;;;;;;;23.42;41.95;98981.44;5130469;27;42912;-85
2021/06/02 07:29:08;;;;;;;0.87;0.87;;;;;;;24.84;39.51;99002.78;5130310;27;42196;-81
2021/06/02 07:31:35;;;;;;;0.37;0.37;;;;;;;26.39;35.93;99021.66;5130256;27;40217;-83
2021/06/02 07:34:04;;;;;;;0.30;0.30;;;;;;;27.83;34.68;99023.88;5130076;27;41668;-84
2021/06/02 07:36:31;;;;;;;0.30;0.30;;;;;;;28.86;31.42;99029.03;5113331;27;42622;-88
2021/06/02 07:38:59;;;;;;;0.20;0.20;;;;;;;29.55;31.27;99042.22;5113446;27;42102;-84
2021/06/02 07:41:26;;;;;;;0.30;0.30;;;;;;;29.54;30.68;99029.66;5128250;27;39454;-86
2021/06/02 07:43:53;;;;;;;0.60;0.60;;;;;;;29.45;29.70;99041.81;5113596;27;40916;-87
2021/06/02 07:46:20;;;;;;;0.20;0.20;;;;;;;29.62;30.41;99026.69;5129390;27;41724;-88
2021/06/02 07:48:47;;;;;;;0.50;0.50;;;;;;;30.34;29.39;99041.13;5129442;27;42865;-90
2021/06/02 07:51:16;;;;;;;0.40;0.40;;;;;;;31.34;27.47;99029.28;5112189;27;38836;-87
2021/06/02 07:53:45;;;;;;;0.30;0.30;;;;;;;32.79;24.77;99054.13;5113710;27;41487;-90
2021/06/02 07:56:13;;;;;;;0.40;0.40;;;;;;;34.08;23.52;99066.88;5112318;27;41429;-83
2021/06/02 07:58:42;;;;;;;0.83;0.77;;;;;;;34.83;23.52;99076.94;5147819;27;42232;-85
2021/06/02 08:01:09;;;;;;;0.47;0.47;;;;;;;34.91;22.67;99055.34;5147824;27;39769;-83
2021/06/02 08:03:36;;;;;;;0.40;0.40;;;;;;;34.60;22.72;99086.13;5147392;27;42418;-85
2021/06/02 08:06:04;;;;;;;2.33;2.03;;;;;;;33.91;23.14;99071.44;5129608;27;41699;-84
2021/06/02 08:08:32;;;;;;;0.50;0.50;;;;;;;33.57;22.13;99081.38;5131267;27;41098;-82
2021/06/02 08:10:59;;;;;;;0.80;0.80;;;;;;;33.81;20.85;99079.47;5128357;27;40147;-87
2021/06/02 08:13:27;;;;;;;0.50;0.50;;;;;;;34.79;21.36;99089.53;5113936;27;41488;-80
2021/06/02 08:15:55;;;;;;;0.30;0.30;;;;;;;35.69;19.95;99083.91;5112148;27;41874;-85
2021/06/02 08:18:22;;;;;;;0.50;0.50;;;;;;;36.94;19.89;99090.50;5128097;27;40980;-81
2021/06/02 08:20:49;;;;;;;1.23;1.10;;;;;;;37.80;18.01;99099.53;5146423;27;39832;-80
2021/06/02 08:23:16;;;;;;;1.20;0.70;;;;;;;38.39;18.11;99091.00;5129532;27;42014;-81
2021/06/02 08:25:45;;;;;;;0.50;0.50;;;;;;;38.59;17.59;99102.16;5129743;27;41821;-88
2021/06/02 08:28:12;;;;;;;0.60;0.60;;;;;;;38.42;17.98;99090.47;5131009;27;42000;-83
2021/06/02 08:30:39;;;;;;;0.40;0.40;;;;;;;37.75;18.31;99099.50;5110083;27;38819;-80
2021/06/02 08:33:08;;;;;;;0.83;0.83;;;;;;;36.67;19.40;99069.22;5115669;27;41131;-81
2021/06/02 08:35:49;;;;;;;0.50;0.50;;;;;;;35.57;19.31;99063.88;5116723;27;41625;-83
2021/06/02 08:38:19;;;;;;;0.53;0.53;;;;;;;34.83;19.58;99090.72;5114998;27;44461;-83
2021/06/02 08:40:51;;;;;;;0.80;0.80;;;;;;;34.95;19.75;99088.72;5113119;27;40123;-91
2021/06/02 08:43:19;;;;;;;8.70;1.03;;;;;;;35.52;20.03;99056.38;5095168;27;41455;-86
2021/06/02 08:45:47;;;;;;;0.47;0.47;;;;;;;36.55;19.54;99054.72;5125498;27;41868;-83
2021/06/02 08:48:15;;;;;;;0.40;0.40;;;;;;;38.10;17.97;99077.59;5115145;27;41372;-80
2021/06/02 08:50:42;;;;;;;0.60;0.60;;;;;;;39.91;16.90;99080.13;5130439;27;40380;-81
2021/06/02 08:53:14;;;;;;;0.55;0.55;;;;;;;41.18;15.65;99077.53;5132757;27;41616;-82
2021/06/02 08:55:44;;;;;;;0.30;0.30;;;;;;;41.90;15.19;99059.06;5115129;27;41856;-81
2021/06/02 08:58:17;;;;;;;0.70;0.70;;;;;;;42.45;15.27;99087.38;5131178;27;42022;-86
2021/06/02 09:00:45;;;;;;;0.93;0.85;;;;;;;42.63;14.44;99080.19;5149834;27;40579;-79
2021/06/02 09:03:13;;;;;;;0.68;0.68;;;;;;;42.80;14.39;99083.28;5115146;27;42305;-79
2021/06/02 09:05:40;;;;;;;0.60;0.60;;;;;;;42.65;14.35;99089.06;5135841;27;42776;-80
2021/06/02 09:08:13;;;;;;;0.73;0.73;;;;;;;41.83;15.21;99077.22;5095561;27;20233;-83
2021/06/02 09:10:42;;;;;;;0.50;0.50;;;;;;;41.12;15.49;99075.91;5122326;27;38723;-80
2021/06/02 09:13:16;;;;;;;0.50;0.50;;;;;;;41.20;14.69;99080.03;5149370;27;41637;-82
2021/06/02 09:15:46;;;;;;;0.47;0.43;;;;;;;41.82;14.62;99083.91;5115440;27;42213;-82
2021/06/02 09:18:15;;;;;;;0.52;0.52;;;;;;;42.66;13.58;99082.34;5132910;27;41899;-78
2021/06/02 09:20:44;;;;;;;0.40;0.40;;;;;;;42.85;13.04;99093.53;5111418;27;40282;-78
2021/06/02 09:23:34;;;;;;;0.50;0.50;;;;;;;43.27;13.38;99078.69;5110756;27;41001;-80
2021/06/02 09:26:19;;;;;;;0.50;0.50;;;;;;;44.04;12.38;99101.28;5110600;27;42624;-82
2021/06/02 09:28:59;;;;;;;0.50;0.50;;;;;;;44.51;11.61;99107.63;5130007;27;42903;-79
2021/06/02 09:31:30;;;;;;;0.60;0.60;;;;;;;44.99;11.15;99114.38;5148570;27;39647;-78
2021/06/02 09:34:00;;;;;;;0.47;0.47;;;;;;;45.19;11.15;99106.66;5115360;27;40210;-79
2021/06/02 09:36:29;;;;;;;0.63;0.63;;;;;;;45.09;12.21;99085.31;5131259;27;41882;-85
2021/06/02 09:38:59;;;;;;;0.50;0.50;;;;;;;45.11;12.36;99074.66;5149723;27;42317;-78
2021/06/02 09:41:37;;;;;;;0.40;0.40;;;;;;;44.98;12.17;99087.56;5149230;27;40562;-78
2021/06/02 09:44:15;;;;;;;1.05;0.80;;;;;;;44.23;12.50;99082.47;5128313;27;40272;-82
2021/06/02 09:47:04;;;;;;;0.60;0.60;;;;;;;44.47;12.21;99085.06;5110668;27;42205;-83
2021/06/02 09:49:46;;;;;;;0.70;0.70;;;;;;;45.08;11.83;99078.91;5111778;27;42247;-80
2021/06/02 09:52:14;;;;;;;0.57;0.57;;;;;;;45.33;10.92;99063.50;5131640;27;39414;-81
2021/06/02 09:54:42;;;;;;;0.40;0.40;;;;;;;44.76;12.03;99064.34;5114113;27;42268;-84
2021/06/02 09:57:12;;;;;;;0.57;0.57;;;;;;;43.81;12.15;99071.56;5130393;27;41745;-82
2021/06/02 09:59:57;;;;;;;0.98;0.60;;;;;;;43.44;12.14;99078.94;5113776;27;41484;-84
2021/06/02 10:02:25;;;;;;;0.30;0.30;;;;;;;42.79;13.20;99070.47;5115233;27;39038;-84
2021/06/02 10:05:00;;;;;;;1.20;1.10;;;;;;;42.10;13.90;99057.19;5131339;27;40772;-83
2021/06/02 10:07:29;;;;;;;0.60;0.60;;;;;;;40.72;13.97;99029.78;5132142;27;42553;-81
2021/06/02 10:10:07;;;;;;;0.50;0.50;;;;;;;39.47;15.58;99024.44;5144553;27;43011;-82
2021/06/02 10:12:34;;;;;;;0.53;0.53;;;;;;;38.58;16.03;99042.34;5135924;27;38971;-84
2021/06/02 10:15:06;;;;;;;0.83;0.70;;;;;;;38.00;17.44;99021.38;5113640;27;41810;-83
2021/06/02 10:17:36;;;;;;;0.70;0.70;;;;;;;37.97;16.59;99044.03;5098795;27;43336;-86
2021/06/02 10:20:09;;;;;;;0.40;0.40;;;;;;;37.88;16.92;99031.81;5113368;27;42461;-89
2021/06/02 10:22:36;;;;;;;0.40;0.40;;;;;;;37.56;16.82;99034.66;5098014;27;40479;-86
2021/06/02 10:25:07;;;;;;;0.43;0.43;;;;;;;37.18;18.15;99025.56;5107223;27;41423;-85
2021/06/02 10:27:34;;;;;;;0.57;0.57;;;;;;;36.59;18.59;99014.50;5135862;27;41542;-84
2021/06/02 10:30:06;;;;;;;0.40;0.40;;;;;;;36.23;19.95;99007.75;5134550;27;41009;-85
2021/06/02 10:32:34;;;;;;;0.50;0.50;;;;;;;35.95;19.33;99013.47;5118366;27;38637;-86
2021/06/02 10:35:01;;;;;;;2.40;0.90;;;;;;;35.78;18.88;99016.25;5117941;27;42313;-91
2021/06/02 10:37:29;;;;;;;1.27;0.70;;;;;;;35.90;18.84;99011.47;5118156;27;41917;-84
2021/06/02 10:39:59;;;;;;;0.83;0.83;;;;;;;36.11;18.55;99026.31;5117041;27;41446;-83
2021/06/02 10:42:36;;;;;;;0.70;0.70;;;;;;;35.96;19.94;99007.69;5117020;27;39844;-84
2021/06/02 10:45:12;;;;;;;0.93;0.93;;;;;;;35.70;18.25;99030.47;5117483;27;40774;-81
2021/06/02 10:47:40;;;;;;;0.40;0.40;;;;;;;35.28;19.84;99000.66;5135005;27;41794;-84
2021/06/02 10:50:27;;;;;;;0.67;0.67;;;;;;;34.97;20.05;99009.50;5116696;27;41263;-84
2021/06/02 10:52:54;;;;;;;0.60;0.60;;;;;;;34.64;21.23;99001.16;5133108;27;39946;-83
2021/06/02 10:55:35;;;;;;;0.77;0.77;;;;;;;34.36;20.39;99018.53;5118396;27;41485;-79
2021/06/02 10:58:23;;;;;;;0.43;0.43;;;;;;;34.07;21.41;99015.72;5113627;27;42100;-78
2021/06/02 11:00:53;;;;;;;0.40;0.40;;;;;;;33.85;21.82;99001.00;5124988;27;42377;-76
2021/06/02 11:03:26;;;;;;;1.50;1.20;;;;;;;33.65;21.18;98997.75;5151479;27;39820;-79
2021/06/02 11:06:33;;;;;;;0.80;0.60;;;;;;;33.69;22.17;99010.78;5133919;27;41440;-79
2021/06/02 11:09:08;;;;;;;0.50;0.40;;;;;;;33.40;21.92;98992.53;5133191;27;41108;-78
2021/06/02 11:11:37;;;;;;;0.60;0.60;;;;;;;33.23;21.22;98997.06;5134148;27;41605;-84
2021/06/02 11:14:23;;;;;;;0.47;0.47;;;;;;;33.19;21.53;98994.78;5132849;27;39946;-86
2021/06/02 11:17:00;;;;;;;0.50;0.50;;;;;;;33.19;21.82;98991.19;5129349;27;41050;-82
2021/06/02 11:19:30;;;;;;;0.60;0.60;;;;;;;33.21;22.24;98999.19;5118032;27;42819;-85
2021/06/02 11:22:00;;;;;;;0.37;0.37;;;;;;;33.05;22.54;98970.53;5102404;27;42204;-85
2021/06/02 11:24:52;;;;;;;0.53;0.50;;;;;;;33.19;23.11;98989.28;5114016;27;39066;-79
2021/06/02 11:27:39;;;;;;;0.30;0.30;;;;;;;33.21;22.70;98988.22;5129275;27;41780;-83
2021/06/02 11:30:25;;;;;;;0.27;0.27;;;;;;;33.18;23.23;98984.88;5130461;27;42665;-85
2021/06/02 11:33:13;;;;;;;0.50;0.50;;;;;;;33.18;21.47;99001.34;5097932;27;41555;-80
2021/06/02 11:36:04;;;;;;;0.60;0.60;;;;;;;33.21;22.09;98989.06;5143757;27;39577;-80
2021/06/02 11:38:33;;;;;;;0.70;0.70;;;;;;;33.40;21.28;98989.78;5155825;27;42273;-83
2021/06/02 11:41:00;;;;;;;0.40;0.40;;;;;;;33.73;20.50;99009.22;5110443;27;42827;-79
2021/06/02 11:43:27;;;;;;;0.60;0.60;;;;;;;34.11;21.44;98996.84;5130131;27;41536;-81
2021/06/02 11:45:59;;;;;;;0.43;0.40;;;;;;;34.79;19.75;99004.22;5096446;27;38903;-80
2021/06/02 11:48:40;;;;;;;0.40;0.40;;;;;;;36.19;20.09;99000.22;5113042;27;40383;-81
2021/06/02 11:51:09;;;;;;;0.90;0.90;;;;;;;37.55;18.58;99008.13;5119073;27;43815;-84
2021/06/02 11:53:38;;;;;;;0.47;0.47;;;;;;;38.24;17.38;99016.22;5095779;27;41247;-78
2021/06/02 11:56:05;;;;;;;0.53;0.53;;;;;;;38.27;17.40;99010.16;5130157;27;40664;-80
2021/06/02 11:58:32;;;;;;;0.50;0.50;;;;;;;38.30;17.75;98977.25;5129996;27;42518;-76
2021/06/02 12:01:00;;;;;;;0.40;0.40;;;;;;;38.74;16.49;99010.84;5110630;27;42997;-79
2021/06/02 12:03:28;;;;;;;0.50;0.50;;;;;;;39.12;16.77;99009.47;5133586;27;42095;-89
2021/06/02 12:05:57;;;;;;;0.40;0.40;;;;;;;39.39;16.93;99006.41;5131878;27;39929;-78
2021/06/02 12:08:24;;;;;;;0.40;0.40;;;;;;;39.89;16.30;99015.75;5150574;27;42558;-76
2021/06/02 12:10:52;;;;;;;0.50;0.50;;;;;;;40.82;15.72;99029.72;5149000;27;42769;-79
2021/06/02 12:13:21;;;;;;;0.43;0.43;;;;;;;41.74;14.99;99035.31;5149827;27;42982;-79
2021/06/02 12:15:52;;;;;;;0.60;0.60;;;;;;;42.66;13.75;99030.25;5115718;27;40108;-79
2021/06/02 12:18:34;;;;;;;0.77;0.77;;;;;;;43.09;13.90;99032.94;5150176;27;42461;-80